| time (UTC) | temp F | wind direction | speed MPH | gust MPH | rain 1hr in | rain 24hr in | rain mn in | humidity % | barometer mb |
| 20260509224004 | 57 | 261 | 1.0 | 2.0 | 0.00 | 0.38 | 0.38 | 83 | 1008.6 |
| 20260509223500 | 58 | 190 | 0.0 | 1.0 | 0.00 | 0.38 | 0.38 | 83 | 1008.6 |
| 20260509222957 | 58 | 318 | 3.0 | 5.0 | 0.00 | 0.38 | 0.38 | 82 | 1008.9 |
| 20260509222453 | 58 | 21 | 0.0 | 1.0 | 0.00 | 0.38 | 0.38 | 82 | 1008.6 |
| 20260509221949 | 58 | 198 | 1.0 | 1.0 | 0.00 | 0.38 | 0.38 | 81 | 1008.6 |
| 20260509221445 | 59 | 335 | 1.0 | 1.0 | 0.00 | 0.38 | 0.38 | 80 | 1008.5 |
| 20260509220941 | 59 | 230 | 1.0 | 2.0 | 0.00 | 0.38 | 0.38 | 81 | 1008.6 |
| 20260509220437 | 58 | 223 | 3.0 | 5.0 | 0.00 | 0.38 | 0.38 | 82 | 1008.7 |
| 20260509215933 | 57 | 229 | 1.0 | 2.0 | 0.00 | 0.38 | 0.38 | 83 | 1008.7 |
| 20260509215429 | 58 | 204 | 4.0 | 6.0 | 0.00 | 0.38 | 0.38 | 82 | 1008.8 |
| 20260509214927 | 58 | 236 | 3.0 | 5.0 | 0.00 | 0.38 | 0.38 | 83 | 1008.9 |
| 20260509214424 | 58 | 187 | 2.0 | 3.0 | 0.00 | 0.38 | 0.38 | 83 | 1008.9 |
| 20260509213921 | 57 | 243 | 2.0 | 2.0 | 0.00 | 0.38 | 0.38 | 85 | 1008.9 |
| 20260509213417 | 56 | 329 | 1.0 | 1.0 | 0.00 | 0.38 | 0.38 | 86 | 1009.1 |
| 20260509212914 | 56 | 323 | 1.0 | 2.0 | 0.00 | 0.38 | 0.38 | 88 | 1009.1 |
| 20260509212412 | 56 | 244 | 3.0 | 5.0 | 0.00 | 0.38 | 0.38 | 88 | 1009.2 |
| 20260509211908 | 55 | 272 | 2.0 | 2.0 | 0.00 | 0.38 | 0.38 | 88 | 1009.2 |
| 20260509211404 | 56 | 244 | 3.0 | 3.0 | 0.00 | 0.38 | 0.38 | 89 | 1009.2 |
| 20260509210900 | 56 | 208 | 2.0 | 2.0 | 0.00 | 0.38 | 0.38 | 89 | 1009.3 |
| 20260509210357 | 55 | 189 | 2.0 | 3.0 | 0.00 | 0.38 | 0.38 | 90 | 1009.2 |
| 20260509205852 | 54 | 244 | 3.0 | 3.0 | 0.00 | 0.38 | 0.38 | 90 | 1009.4 |
| 20260509205346 | 54 | 170 | 4.0 | 7.0 | 0.00 | 0.38 | 0.38 | 90 | 1009.3 |
| 20260509204843 | 55 | 176 | 3.0 | 5.0 | 0.00 | 0.38 | 0.38 | 90 | 1009.6 |
| 20260509204334 | 55 | 351 | 1.0 | 2.0 | 0.00 | 0.38 | 0.38 | 91 | 1009.3 |
| 20260509203830 | 56 | 228 | 3.0 | 3.0 | 0.00 | 0.38 | 0.38 | 90 | 1009.4 |
| 20260509203327 | 56 | 289 | 2.0 | 2.0 | 0.00 | 0.38 | 0.38 | 90 | 1009.3 |
| 20260509202824 | 56 | 219 | 4.0 | 6.0 | 0.00 | 0.38 | 0.38 | 89 | 1009.3 |
| 20260509202320 | 55 | 286 | 2.0 | 3.0 | 0.00 | 0.38 | 0.38 | 90 | 1009.3 |
| 20260509201819 | 55 | 141 | 2.0 | 2.0 | 0.07 | 0.38 | 0.38 | 91 | 1009.4 |
| 20260509201316 | 54 | 28 | 2.0 | 2.0 | 0.07 | 0.38 | 0.38 | 91 | 1009.2 |
| 20260509200813 | 54 | 281 | 1.0 | 2.0 | 0.07 | 0.38 | 0.38 | 91 | 1009.3 |
| 20260509200308 | 54 | 41 | 1.0 | 1.0 | 0.00 | 0.37 | 0.37 | 92 | 1009.4 |
| 20260509195805 | 53 | 238 | 2.0 | 2.0 | 0.00 | 0.37 | 0.37 | 92 | 1009.4 |
| 20260509195300 | 53 | 235 | 4.0 | 5.0 | 0.00 | 0.37 | 0.37 | 93 | 1009.6 |
| 20260509194759 | 53 | 239 | 5.0 | 7.0 | 0.00 | 0.37 | 0.37 | 93 | 1009.8 |
| 20260509194256 | 53 | 270 | 2.0 | 2.0 | 0.05 | 0.37 | 0.37 | 94 | 1009.8 |
| 20260509193752 | 52 | 339 | 0.0 | 0.0 | 0.05 | 0.37 | 0.37 | 94 | 1010.0 |
| 20260509193247 | 52 | 16 | 2.0 | 3.0 | 0.07 | 0.36 | 0.36 | 94 | 1010.0 |
| 20260509192743 | 52 | 154 | 3.0 | 3.0 | 0.12 | 0.36 | 0.36 | 93 | 1010.1 |
| 20260509192238 | 53 | 242 | 6.0 | 8.0 | 0.12 | 0.35 | 0.35 | 93 | 1010.2 |
| 20260509191734 | 53 | 213 | 2.0 | 2.0 | 0.14 | 0.34 | 0.34 | 93 | 1010.2 |
| 20260509191231 | 53 | 66 | 1.0 | 2.0 | 0.07 | 0.33 | 0.33 | 93 | 1010.3 |
| 20260509190727 | 53 | 311 | 2.0 | 2.0 | 0.05 | 0.32 | 0.32 | 93 | 1010.3 |
| 20260509190224 | 53 | 273 | 1.0 | 1.0 | 0.12 | 0.32 | 0.32 | 92 | 1010.3 |
| 20260509185721 | 53 | 255 | 4.0 | 5.0 | 0.07 | 0.31 | 0.31 | 92 | 1010.4 |
| 20260509185218 | 53 | 202 | 2.0 | 3.0 | 0.05 | 0.30 | 0.30 | 93 | 1010.4 |
| 20260509184715 | 53 | 196 | 2.0 | 2.0 | 0.12 | 0.30 | 0.30 | 93 | 1010.4 |
| 20260509184212 | 53 | 334 | 1.0 | 1.0 | 0.07 | 0.29 | 0.29 | 93 | 1010.5 |
| 20260509183708 | 53 | 200 | 2.0 | 2.0 | 0.05 | 0.28 | 0.28 | 93 | 1010.5 |
| 20260509183203 | 52 | 146 | 3.0 | 5.0 | 0.12 | 0.28 | 0.28 | 92 | 1010.4 |
| 20260509182659 | 53 | 176 | 3.0 | 5.0 | 0.12 | 0.27 | 0.27 | 92 | 1010.5 |
| 20260509182157 | 53 | 293 | 2.0 | 2.0 | 0.12 | 0.26 | 0.26 | 92 | 1010.3 |
| 20260509181654 | 53 | 282 | 2.0 | 3.0 | 0.07 | 0.25 | 0.25 | 92 | 1010.5 |
| 20260509181152 | 53 | 86 | 1.0 | 1.0 | 0.05 | 0.24 | 0.24 | 92 | 1010.5 |
| 20260509180648 | 53 | 173 | 2.0 | 2.0 | 0.12 | 0.24 | 0.24 | 92 | 1010.4 |
| 20260509180145 | 53 | 226 | 3.0 | 3.0 | 0.14 | 0.23 | 0.23 | 92 | 1010.4 |
| 20260509175641 | 53 | 171 | 3.0 | 3.0 | 0.12 | 0.22 | 0.22 | 92 | 1010.2 |
| 20260509175138 | 53 | 145 | 2.0 | 2.0 | 0.12 | 0.21 | 0.21 | 92 | 1010.2 |
| 20260509174633 | 53 | 231 | 2.0 | 3.0 | 0.07 | 0.20 | 0.20 | 91 | 1010.2 |
| 20260509174128 | 53 | 68 | 3.0 | 3.0 | 0.05 | 0.19 | 0.19 | 92 | 1010.3 |
| 20260509173625 | 53 | 188 | 3.0 | 5.0 | 0.05 | 0.19 | 0.19 | 92 | 1010.4 |
| 20260509173121 | 53 | 48 | 1.0 | 1.0 | 0.07 | 0.18 | 0.18 | 92 | 1010.2 |
| 20260509172618 | 53 | 171 | 2.0 | 2.0 | 0.07 | 0.18 | 0.18 | 92 | 1010.1 |
| 20260509172114 | 53 | 189 | 6.0 | 7.0 | 0.00 | 0.17 | 0.17 | 91 | 1010.3 |
| 20260509171609 | 53 | 89 | 3.0 | 3.0 | 0.05 | 0.17 | 0.17 | 91 | 1010.3 |
| 20260509171106 | 54 | 243 | 2.0 | 3.0 | 0.05 | 0.17 | 0.17 | 91 | 1010.2 |
| 20260509170602 | 54 | 269 | 3.0 | 3.0 | 0.00 | 0.16 | 0.16 | 91 | 1010.1 |
| 20260509170058 | 54 | 172 | 2.0 | 3.0 | 0.00 | 0.16 | 0.16 | 90 | 1010.4 |
| 20260509165557 | 54 | 238 | 7.0 | 8.0 | 0.00 | 0.16 | 0.16 | 89 | 1010.3 |
| 20260509165052 | 54 | 303 | 1.0 | 1.0 | 0.00 | 0.16 | 0.16 | 89 | 1010.3 |
| 20260509164549 | 54 | 213 | 3.0 | 7.0 | 0.07 | 0.16 | 0.16 | 91 | 1010.3 |
| 20260509164044 | 54 | 85 | 1.0 | 1.0 | 0.07 | 0.16 | 0.16 | 91 | 1010.3 |
| 20260509163543 | 53 | 287 | 2.0 | 2.0 | 0.00 | 0.15 | 0.15 | 91 | 1010.3 |
| 20260509163038 | 53 | 243 | 5.0 | 7.0 | 0.00 | 0.15 | 0.15 | 92 | 1010.2 |
| 20260509162535 | 53 | 253 | 5.0 | 7.0 | 0.05 | 0.15 | 0.15 | 92 | 1010.1 |
| 20260509162031 | 53 | 219 | 4.0 | 6.0 | 0.05 | 0.15 | 0.15 | 92 | 1010.2 |
| 20260509161527 | 53 | 289 | 1.0 | 2.0 | 0.05 | 0.15 | 0.15 | 91 | 1010.1 |
| 20260509161022 | 53 | 116 | 3.0 | 3.0 | 0.00 | 0.14 | 0.14 | 91 | 1010.4 |
| 20260509160518 | 53 | 232 | 5.0 | 7.0 | 0.00 | 0.14 | 0.14 | 90 | 1010.3 |
| 20260509160014 | 53 | 196 | 5.0 | 6.0 | 0.07 | 0.14 | 0.14 | 89 | 1010.3 |
| 20260509155510 | 54 | 204 | 2.0 | 2.0 | 0.07 | 0.14 | 0.14 | 90 | 1010.3 |
| 20260509155006 | 54 | 197 | 1.0 | 2.0 | 0.00 | 0.13 | 0.13 | 90 | 1010.3 |
| 20260509154503 | 54 | 31 | 3.0 | 3.0 | 0.00 | 0.13 | 0.13 | 89 | 1010.5 |
| 20260509154001 | 54 | 170 | 4.0 | 7.0 | 0.00 | 0.13 | 0.13 | 89 | 1010.3 |
| 20260509153457 | 54 | 289 | 1.0 | 2.0 | 0.00 | 0.13 | 0.13 | 88 | 1010.3 |
| 20260509152954 | 54 | 248 | 2.0 | 2.0 | 0.00 | 0.13 | 0.13 | 88 | 1010.4 |
| 20260509152450 | 53 | 222 | 2.0 | 2.0 | 0.00 | 0.13 | 0.13 | 88 | 1010.4 |
| 20260509151947 | 53 | 266 | 2.0 | 2.0 | 0.00 | 0.13 | 0.13 | 89 | 1010.5 |
| 20260509151443 | 53 | 197 | 2.0 | 2.0 | 0.00 | 0.13 | 0.13 | 90 | 1010.5 |
| 20260509150941 | 52 | 31 | 1.0 | 1.0 | 0.05 | 0.13 | 0.13 | 91 | 1010.6 |
| 20260509150438 | 52 | 83 | 1.0 | 2.0 | 0.05 | 0.13 | 0.13 | 91 | 1010.6 |
| 20260509145937 | 52 | 299 | 1.0 | 1.0 | 0.00 | 0.12 | 0.12 | 91 | 1010.7 |
| 20260509145431 | 52 | 126 | 2.0 | 2.0 | 0.00 | 0.12 | 0.12 | 91 | 1010.5 |
| 20260509144927 | 52 | 270 | 3.0 | 3.0 | 0.07 | 0.12 | 0.12 | 92 | 1010.6 |
| 20260509144424 | 52 | 108 | 1.0 | 2.0 | 0.07 | 0.12 | 0.12 | 91 | 1010.8 |
| 20260509143921 | 52 | 108 | 1.0 | 2.0 | 0.05 | 0.11 | 0.11 | 91 | 1011.1 |
| 20260509143419 | 52 | 237 | 3.0 | 3.0 | 0.05 | 0.11 | 0.11 | 91 | 1011.2 |
| 20260509142915 | 52 | 255 | 3.0 | 3.0 | 0.00 | 0.10 | 0.10 | 91 | 1011.1 |
| 20260509142412 | 52 | 20 | 0.0 | 0.0 | 0.00 | 0.10 | 0.10 | 90 | 1010.9 |
| 20260509141907 | 52 | 15 | 0.0 | 0.0 | 0.00 | 0.10 | 0.10 | 90 | 1010.7 |
| 20260509141404 | 52 | 323 | 2.0 | 2.0 | 0.07 | 0.10 | 0.10 | 90 | 1010.8 |
| 20260509140901 | 52 | 335 | 0.0 | 0.0 | 0.07 | 0.10 | 0.10 | 91 | 1010.8 |
| 20260509140357 | 52 | 3 | 2.0 | 5.0 | 0.00 | 0.09 | 0.09 | 91 | 1010.5 |
| 20260509135856 | 52 | 53 | 1.0 | 2.0 | 0.00 | 0.09 | 0.09 | 90 | 1010.5 |
| 20260509135353 | 52 | 31 | 0.0 | 0.0 | 0.00 | 0.09 | 0.09 | 91 | 1010.7 |
| 20260509134850 | 51 | 131 | 1.0 | 1.0 | 0.00 | 0.09 | 0.09 | 91 | 1010.7 |
| 20260509134347 | 51 | 7 | 2.0 | 2.0 | 0.00 | 0.09 | 0.09 | 92 | 1010.6 |
| 20260509133844 | 51 | 49 | 1.0 | 1.0 | 0.07 | 0.09 | 0.09 | 93 | 1010.6 |
| 20260509133341 | 51 | 9 | 0.0 | 0.0 | 0.07 | 0.09 | 0.09 | 94 | 1010.6 |
| 20260509132840 | 52 | 23 | 0.0 | 0.0 | 0.00 | 0.08 | 0.08 | 94 | 1010.7 |
| 20260509132337 | 52 | 21 | 0.0 | 0.0 | 0.00 | 0.08 | 0.08 | 94 | 1010.6 |
| 20260509131834 | 52 | 12 | 0.0 | 0.0 | 0.05 | 0.08 | 0.08 | 94 | 1010.6 |
| 20260509131331 | 51 | 2 | 0.0 | 0.0 | 0.05 | 0.08 | 0.08 | 94 | 1010.4 |
| 20260509130827 | 51 | 346 | 1.0 | 2.0 | 0.00 | 0.07 | 0.07 | 96 | 1010.3 |
| 20260509130323 | 50 | 46 | 0.0 | 0.0 | 0.00 | 0.07 | 0.07 | 98 | 1010.4 |
| 20260509125820 | 50 | 234 | 2.0 | 2.0 | 0.00 | 0.07 | 0.07 | 99 | 1010.2 |
| 20260509125316 | 51 | 3 | 0.0 | 0.0 | 0.00 | 0.07 | 0.07 | 99 | 1010.2 |
| 20260509124813 | 50 | 21 | 0.0 | 0.0 | 0.00 | 0.07 | 0.07 | 99 | 1010.4 |
| 20260509124309 | 50 | 61 | 0.0 | 0.0 | 0.00 | 0.07 | 0.07 | 99 | 1010.2 |
| 20260509123808 | 50 | 20 | 0.0 | 0.0 | 0.00 | 0.07 | 0.07 | 99 | 1010.3 |
| 20260509123305 | 50 | 24 | 0.0 | 0.0 | 0.00 | 0.07 | 0.07 | 99 | 1010.3 |
| 20260509122800 | 50 | 8 | 0.0 | 0.0 | 0.00 | 0.07 | 0.07 | 99 | 1010.1 |
| 20260509122257 | 50 | 2 | 0.0 | 0.0 | 0.07 | 0.07 | 0.07 | 99 | 1010.3 |
| 20260509121754 | 50 | 31 | 0.0 | 0.0 | 0.07 | 0.07 | 0.07 | 99 | 1010.4 |
| 20260509121251 | 50 | 24 | 0.0 | 0.0 | 0.00 | 0.06 | 0.06 | 99 | 1010.5 |
| 20260509120750 | 49 | 24 | 0.0 | 0.0 | 0.00 | 0.06 | 0.06 | 99 | 1010.4 |
| 20260509120247 | 49 | 36 | 0.0 | 0.0 | 0.00 | 0.06 | 0.06 | 99 | 1010.4 |
| 20260509115745 | 49 | 21 | 0.0 | 0.0 | 0.00 | 0.06 | 0.06 | 99 | 1010.6 |
| 20260509115241 | 49 | 52 | 1.0 | 1.0 | 0.00 | 0.06 | 0.06 | 99 | 1010.6 |
| 20260509114740 | 49 | 4 | 0.0 | 0.0 | 0.00 | 0.06 | 0.06 | 99 | 1010.8 |
| 20260509114238 | 49 | 26 | 0.0 | 0.0 | 0.00 | 0.06 | 0.06 | 99 | 1010.7 |
| 20260509113737 | 49 | 15 | 0.0 | 0.0 | 0.00 | 0.06 | 0.06 | 99 | 1010.8 |
| 20260509113233 | 49 | 0 | 0.0 | 0.0 | 0.00 | 0.06 | 0.06 | 99 | 1010.7 |
| 20260509112730 | 48 | 25 | 0.0 | 0.0 | 0.00 | 0.06 | 0.06 | 99 | 1010.7 |
| 20260509112228 | 49 | 21 | 0.0 | 0.0 | 0.00 | 0.06 | 0.06 | 99 | 1010.9 |
| 20260509111725 | 48 | 21 | 0.0 | 0.0 | 0.00 | 0.06 | 0.06 | 99 | 1010.8 |
| 20260509111221 | 48 | 14 | 0.0 | 0.0 | 0.00 | 0.06 | 0.06 | 99 | 1011.0 |
| 20260509110719 | 48 | 13 | 0.0 | 0.0 | 0.00 | 0.06 | 0.06 | 99 | 1010.8 |
| 20260509110215 | 48 | 12 | 0.0 | 0.0 | 0.00 | 0.06 | 0.06 | 99 | 1011.0 |
| 20260509105713 | 48 | 13 | 0.0 | 0.0 | 0.00 | 0.06 | 0.06 | 99 | 1010.9 |
| 20260509105211 | 48 | 9 | 0.0 | 0.0 | 0.00 | 0.06 | 0.06 | 99 | 1010.8 |
| 20260509104707 | 48 | 20 | 0.0 | 0.0 | 0.00 | 0.06 | 0.06 | 99 | 1010.7 |
| 20260509104204 | 48 | 3 | 0.0 | 0.0 | 0.00 | 0.06 | 0.06 | 99 | 1010.8 |
| 20260509103703 | 47 | 32 | 0.0 | 0.0 | 0.00 | 0.06 | 0.06 | 99 | 1010.5 |
| 20260509103159 | 48 | 31 | 0.0 | 0.0 | 0.00 | 0.06 | 0.06 | 99 | 1010.9 |
| 20260509102658 | 48 | 31 | 0.0 | 0.0 | 0.00 | 0.06 | 0.06 | 99 | 1011.0 |
| 20260509102154 | 47 | 31 | 0.0 | 0.0 | 0.00 | 0.06 | 0.06 | 99 | 1011.0 |
| 20260509101650 | 47 | 31 | 0.0 | 0.0 | 0.00 | 0.06 | 0.06 | 99 | 1011.1 |
| 20260509101147 | 47 | 32 | 0.0 | 0.0 | 0.00 | 0.06 | 0.06 | 99 | 1010.8 |
| 20260509100644 | 47 | 32 | 0.0 | 0.0 | 0.00 | 0.06 | 0.06 | 99 | 1011.2 |
| 20260509100141 | 47 | 32 | 0.0 | 0.0 | 0.00 | 0.06 | 0.06 | 99 | 1011.1 |
| 20260509095638 | 47 | 31 | 0.0 | 0.0 | 0.00 | 0.06 | 0.06 | 99 | 1010.9 |
| 20260509095135 | 47 | 31 | 0.0 | 0.0 | 0.00 | 0.06 | 0.06 | 99 | 1010.8 |
| 20260509094632 | 47 | 31 | 0.0 | 0.0 | 0.00 | 0.06 | 0.06 | 99 | 1010.8 |
| 20260509094129 | 47 | 31 | 0.0 | 0.0 | 0.00 | 0.06 | 0.06 | 99 | 1010.6 |
| 20260509093627 | 47 | 31 | 0.0 | 0.0 | 0.00 | 0.06 | 0.06 | 99 | 1010.7 |
| 20260509093124 | 47 | 30 | 0.0 | 0.0 | 0.00 | 0.06 | 0.06 | 99 | 1010.7 |
| 20260509092622 | 47 | 30 | 0.0 | 0.0 | 0.00 | 0.06 | 0.06 | 99 | 1010.8 |
| 20260509092121 | 47 | 30 | 0.0 | 0.0 | 0.00 | 0.06 | 0.06 | 99 | 1010.8 |
| 20260509091618 | 47 | 30 | 0.0 | 0.0 | 0.00 | 0.06 | 0.06 | 99 | 1011.1 |
| 20260509091114 | 47 | 30 | 0.0 | 0.0 | 0.00 | 0.06 | 0.06 | 99 | 1011.1 |
| 20260509090612 | 47 | 30 | 0.0 | 0.0 | 0.00 | 0.06 | 0.06 | 99 | 1010.9 |
| 20260509090109 | 47 | 30 | 0.0 | 0.0 | 0.00 | 0.06 | 0.06 | 99 | 1011.2 |
| 20260509085606 | 47 | 30 | 0.0 | 0.0 | 0.00 | 0.06 | 0.06 | 99 | 1011.1 |
| 20260509085056 | 48 | 30 | 0.0 | 0.0 | 0.00 | 0.06 | 0.06 | 99 | 1011.3 |
| 20260509084554 | 48 | 30 | 0.0 | 0.0 | 0.00 | 0.06 | 0.06 | 99 | 1011.5 |
| 20260509084051 | 48 | 30 | 0.0 | 0.0 | 0.00 | 0.06 | 0.06 | 99 | 1011.6 |
| 20260509083548 | 47 | 30 | 0.0 | 0.0 | 0.00 | 0.06 | 0.06 | 99 | 1011.6 |
| 20260509083044 | 47 | 30 | 0.0 | 0.0 | 0.00 | 0.06 | 0.06 | 99 | 1011.7 |
| 20260509082542 | 48 | 30 | 0.0 | 0.0 | 0.00 | 0.06 | 0.06 | 99 | 1011.7 |
| 20260509082039 | 48 | 25 | 0.0 | 0.0 | 0.00 | 0.06 | 0.06 | 99 | 1011.6 |
| 20260509081536 | 48 | 21 | 0.0 | 0.0 | 0.00 | 0.06 | 0.06 | 99 | 1011.7 |
| 20260509081033 | 48 | 21 | 0.0 | 0.0 | 0.00 | 0.06 | 0.06 | 99 | 1011.7 |
| 20260509080531 | 48 | 21 | 0.0 | 0.0 | 0.00 | 0.06 | 0.06 | 99 | 1011.4 |
| 20260509080029 | 48 | 21 | 0.0 | 0.0 | 0.00 | 0.06 | 0.06 | 99 | 1011.7 |
| 20260509075526 | 48 | 15 | 0.0 | 0.0 | 0.00 | 0.06 | 0.06 | 99 | 1011.5 |
| 20260509075024 | 48 | 27 | 0.0 | 0.0 | 0.00 | 0.06 | 0.06 | 99 | 1011.4 |
| 20260509074521 | 48 | 28 | 0.0 | 0.0 | 0.00 | 0.06 | 0.06 | 98 | 1011.4 |
| 20260509074017 | 48 | 50 | 0.0 | 0.0 | 0.00 | 0.06 | 0.06 | 98 | 1011.5 |
| 20260509073514 | 48 | 38 | 0.0 | 0.0 | 0.00 | 0.06 | 0.06 | 98 | 1011.7 |
| 20260509073010 | 48 | 39 | 0.0 | 0.0 | 0.00 | 0.06 | 0.06 | 98 | 1011.9 |
| 20260509072507 | 48 | 32 | 0.0 | 0.0 | 0.00 | 0.06 | 0.06 | 98 | 1011.7 |
| 20260509072004 | 48 | 32 | 0.0 | 0.0 | 0.00 | 0.06 | 0.06 | 98 | 1011.6 |
| 20260509071500 | 48 | 32 | 0.0 | 0.0 | 0.00 | 0.06 | 0.06 | 98 | 1011.7 |
| 20260509070958 | 48 | 32 | 0.0 | 0.0 | 0.00 | 0.06 | 0.06 | 98 | 1011.7 |
| 20260509070455 | 48 | 32 | 0.0 | 0.0 | 0.00 | 0.06 | 0.06 | 98 | 1011.6 |
| 20260509065950 | 48 | 32 | 0.0 | 0.0 | 0.00 | 0.06 | 0.06 | 98 | 1011.5 |
| 20260509065446 | 48 | 32 | 0.0 | 0.0 | 0.00 | 0.06 | 0.06 | 98 | 1011.6 |
| 20260509064943 | 48 | 32 | 0.0 | 0.0 | 0.00 | 0.06 | 0.06 | 98 | 1011.8 |
| 20260509064441 | 48 | 32 | 0.0 | 0.0 | 0.00 | 0.06 | 0.06 | 97 | 1011.8 |
| 20260509063938 | 48 | 32 | 0.0 | 0.0 | 0.00 | 0.06 | 0.06 | 97 | 1011.7 |
| 20260509063433 | 48 | 32 | 0.0 | 0.0 | 0.00 | 0.06 | 0.06 | 97 | 1012.1 |
| 20260509062930 | 48 | 31 | 0.0 | 0.0 | 0.00 | 0.06 | 0.06 | 97 | 1012.2 |
| 20260509062428 | 48 | 30 | 0.0 | 0.0 | 0.05 | 0.06 | 0.06 | 97 | 1012.4 |
| 20260509061925 | 48 | 30 | 0.0 | 0.0 | 0.05 | 0.06 | 0.06 | 97 | 1012.4 |
| 20260509061423 | 48 | 22 | 0.0 | 0.0 | 0.00 | 0.05 | 0.05 | 97 | 1012.4 |
| 20260509060920 | 48 | 24 | 0.0 | 0.0 | 0.00 | 0.05 | 0.05 | 97 | 1012.7 |
| 20260509060417 | 48 | 100 | 1.0 | 1.0 | 0.07 | 0.05 | 0.05 | 97 | 1012.7 |
| 20260509055912 | 48 | 16 | 0.0 | 0.0 | 0.12 | 0.05 | 0.05 | 97 | 1012.7 |
| 20260509055407 | 48 | 20 | 0.0 | 0.0 | 0.05 | 0.04 | 0.04 | 97 | 1012.7 |
| 20260509054904 | 48 | 22 | 0.0 | 0.0 | 0.07 | 0.03 | 0.03 | 97 | 1012.8 |
| 20260509054401 | 48 | 25 | 0.0 | 0.0 | 0.07 | 0.03 | 0.03 | 97 | 1012.8 |
| 20260509053900 | 48 | 24 | 0.0 | 0.0 | 0.00 | 0.02 | 0.02 | 97 | 1012.6 |
| 20260509053356 | 48 | 24 | 0.0 | 0.0 | 0.00 | 0.02 | 0.02 | 97 | 1012.5 |
| 20260509052855 | 48 | 25 | 0.0 | 0.0 | 0.00 | 0.02 | 0.02 | 97 | 1011.9 |
| 20260509052352 | 48 | 25 | 0.0 | 0.0 | 0.05 | 0.02 | 0.02 | 97 | 1011.8 |
| 20260509051849 | 48 | 25 | 0.0 | 0.0 | 0.05 | 0.02 | 0.02 | 97 | 1011.7 |
| 20260509051347 | 48 | 20 | 0.0 | 0.0 | 0.00 | 0.01 | 0.01 | 97 | 1011.8 |
| 20260509050844 | 48 | 31 | 0.0 | 0.0 | 0.00 | 0.01 | 0.01 | 97 | 1011.5 |
| 20260509050341 | 48 | 33 | 0.0 | 0.0 | 0.00 | 0.01 | 0.01 | 96 | 1011.5 |
| 20260509045837 | 48 | 33 | 0.0 | 0.0 | 0.00 | 0.01 | 0.01 | 96 | 1011.7 |
| 20260509045334 | 48 | 40 | 0.0 | 0.0 | 0.00 | 0.01 | 0.01 | 96 | 1012.3 |
| 20260509044832 | 48 | 30 | 0.0 | 0.0 | 0.00 | 0.01 | 0.01 | 96 | 1012.2 |
| 20260509044329 | 48 | 30 | 0.0 | 0.0 | 0.00 | 0.01 | 0.01 | 96 | 1011.9 |
| 20260509043825 | 48 | 30 | 0.0 | 0.0 | 0.00 | 0.01 | 0.01 | 95 | 1011.8 |
| 20260509043321 | 48 | 30 | 0.0 | 0.0 | 0.00 | 0.01 | 0.01 | 95 | 1011.9 |
| 20260509042817 | 48 | 30 | 0.0 | 0.0 | 0.00 | 0.01 | 0.01 | 95 | 1012.1 |
| 20260509042314 | 48 | 31 | 0.0 | 0.0 | 0.07 | 0.01 | 0.01 | 94 | 1012.2 |
| 20260509041811 | 48 | 38 | 0.0 | 0.0 | 0.07 | 0.01 | 0.01 | 94 | 1012.2 |
| 20260509041308 | 48 | 19 | 0.0 | 0.0 | 0.00 | 0.00 | 0.00 | 94 | 1012.4 |
| 20260509040806 | 48 | 25 | 0.0 | 0.0 | 0.00 | 0.00 | 0.00 | 94 | 1011.9 |
| 20260509040303 | 48 | 24 | 0.0 | 0.0 | 0.00 | 0.00 | 0.00 | 94 | 1012.4 |
| 20260509035800 | 48 | 25 | 0.0 | 0.0 | 0.00 | 0.11 | 0.11 | 94 | 1012.1 |
| 20260509035257 | 48 | 25 | 0.0 | 0.0 | 0.00 | 0.11 | 0.11 | 94 | 1012.2 |
| 20260509034754 | 48 | 24 | 0.0 | 0.0 | 0.00 | 0.11 | 0.11 | 94 | 1012.2 |
| 20260509034252 | 47 | 24 | 0.0 | 0.0 | 0.00 | 0.11 | 0.11 | 94 | 1012.3 |
| 20260509033748 | 47 | 24 | 0.0 | 0.0 | 0.00 | 0.11 | 0.11 | 94 | 1012.2 |
| 20260509033245 | 47 | 24 | 0.0 | 0.0 | 0.00 | 0.11 | 0.11 | 94 | 1012.2 |
| 20260509032742 | 47 | 24 | 0.0 | 0.0 | 0.00 | 0.11 | 0.11 | 94 | 1012.3 |
| 20260509032239 | 47 | 24 | 0.0 | 0.0 | 0.00 | 0.11 | 0.11 | 94 | 1012.5 |
| 20260509031737 | 47 | 23 | 0.0 | 0.0 | 0.00 | 0.11 | 0.11 | 94 | 1012.5 |
| 20260509031234 | 47 | 22 | 0.0 | 0.0 | 0.00 | 0.11 | 0.11 | 94 | 1012.6 |
| 20260509030732 | 47 | 28 | 0.0 | 0.0 | 0.00 | 0.11 | 0.11 | 94 | 1012.4 |
| 20260509030229 | 47 | 32 | 0.0 | 0.0 | 0.00 | 0.11 | 0.11 | 93 | 1012.4 |
| 20260509025726 | 47 | 20 | 0.0 | 0.0 | 0.00 | 0.11 | 0.11 | 93 | 1012.5 |
| 20260509025221 | 47 | 20 | 0.0 | 0.0 | 0.00 | 0.11 | 0.11 | 93 | 1012.3 |
| 20260509024717 | 47 | 19 | 0.0 | 0.0 | 0.00 | 0.11 | 0.11 | 93 | 1012.4 |
| 20260509024213 | 47 | 9 | 0.0 | 0.0 | 0.00 | 0.11 | 0.11 | 93 | 1012.3 |
| 20260509023711 | 47 | 49 | 0.0 | 0.0 | 0.00 | 0.11 | 0.11 | 92 | 1012.3 |
| 20260509023208 | 47 | 49 | 0.0 | 0.0 | 0.00 | 0.11 | 0.11 | 91 | 1012.2 |
| 20260509022703 | 47 | 49 | 0.0 | 0.0 | 0.00 | 0.11 | 0.11 | 91 | 1012.2 |
| 20260509022202 | 48 | 49 | 0.0 | 0.0 | 0.00 | 0.11 | 0.11 | 91 | 1012.7 |
| 20260509021658 | 48 | 49 | 0.0 | 0.0 | 0.00 | 0.11 | 0.11 | 90 | 1012.5 |
| 20260509021156 | 48 | 48 | 0.0 | 0.0 | 0.00 | 0.11 | 0.11 | 89 | 1012.4 |
| 20260509020654 | 49 | 48 | 0.0 | 0.0 | 0.00 | 0.11 | 0.11 | 89 | 1012.6 |
| 20260509020150 | 50 | 48 | 0.0 | 0.0 | 0.00 | 0.11 | 0.11 | 88 | 1012.6 |
| 20260509015649 | 50 | 48 | 0.0 | 0.0 | 0.00 | 0.11 | 0.11 | 87 | 1012.4 |
| 20260509015147 | 50 | 49 | 0.0 | 0.0 | 0.00 | 0.11 | 0.11 | 86 | 1012.2 |
| 20260509014643 | 50 | 49 | 0.0 | 0.0 | 0.00 | 0.11 | 0.11 | 87 | 1011.9 |
| 20260509014139 | 50 | 49 | 0.0 | 0.0 | 0.00 | 0.11 | 0.11 | 86 | 1012.2 |
| 20260509013636 | 50 | 49 | 0.0 | 0.0 | 0.00 | 0.11 | 0.11 | 87 | 1011.9 |
| 20260509013132 | 51 | 50 | 0.0 | 0.0 | 0.00 | 0.11 | 0.11 | 87 | 1012.2 |
| 20260509012629 | 51 | 62 | 1.0 | 1.0 | 0.00 | 0.11 | 0.11 | 86 | 1012.3 |
| 20260509012126 | 51 | 149 | 1.0 | 1.0 | 0.00 | 0.11 | 0.11 | 84 | 1012.2 |
| 20260509011624 | 51 | 77 | 1.0 | 1.0 | 0.00 | 0.11 | 0.11 | 84 | 1012.1 |
| 20260509011121 | 51 | 24 | 0.0 | 0.0 | 0.00 | 0.11 | 0.11 | 84 | 1011.8 |
| 20260509010618 | 51 | 21 | 0.0 | 0.0 | 0.00 | 0.11 | 0.11 | 84 | 1011.7 |
| 20260509010114 | 51 | 25 | 0.0 | 0.0 | 0.00 | 0.11 | 0.11 | 84 | 1011.6 |
| 20260509005612 | 51 | 95 | 0.0 | 0.0 | 0.00 | 0.11 | 0.11 | 84 | 1011.7 |
| 20260509005108 | 51 | 30 | 0.0 | 0.0 | 0.00 | 0.11 | 0.11 | 84 | 1011.6 |
| 20260509004604 | 51 | 90 | 1.0 | 1.0 | 0.00 | 0.11 | 0.11 | 85 | 1011.6 |
| 20260509004101 | 51 | 53 | 0.0 | 0.0 | 0.00 | 0.11 | 0.11 | 85 | 1011.8 |
| 20260509003600 | 51 | 68 | 1.0 | 1.0 | 0.00 | 0.11 | 0.11 | 86 | 1011.6 |
| 20260509003057 | 50 | 355 | 0.0 | 1.0 | 0.00 | 0.11 | 0.11 | 87 | 1011.6 |
| 20260509002554 | 50 | 42 | 0.0 | 0.0 | 0.00 | 0.11 | 0.11 | 90 | 1011.7 |
| 20260509002052 | 50 | 53 | 1.0 | 1.0 | 0.00 | 0.11 | 0.11 | 90 | 1011.4 |
| 20260509001549 | 50 | 26 | 0.0 | 0.0 | 0.00 | 0.11 | 0.11 | 89 | 1011.3 |
| 20260509001044 | 50 | 39 | 0.0 | 0.0 | 0.00 | 0.11 | 0.11 | 89 | 1011.3 |
| 20260509000543 | 51 | 37 | 0.0 | 0.0 | 0.00 | 0.11 | 0.11 | 87 | 1011.4 |
| 20260509000038 | 51 | 38 | 0.0 | 0.0 | 0.00 | 0.11 | 0.11 | 87 | 1011.5 |
| 20260508235537 | 51 | 36 | 0.0 | 0.0 | 0.00 | 0.11 | 0.11 | 86 | 1011.3 |
| 20260508235033 | 51 | 36 | 0.0 | 0.0 | 0.00 | 0.11 | 0.11 | 85 | 1011.3 |
| 20260508234530 | 52 | 40 | 0.0 | 0.0 | 0.00 | 0.11 | 0.11 | 85 | 1011.3 |
| 20260508234027 | 52 | 32 | 0.0 | 0.0 | 0.00 | 0.11 | 0.11 | 81 | 1011.3 |
| 20260508233527 | 53 | 32 | 0.0 | 0.0 | 0.00 | 0.11 | 0.11 | 81 | 1011.1 |
| 20260508233023 | 53 | 32 | 0.0 | 0.0 | 0.00 | 0.11 | 0.11 | 79 | 1011.3 |
| 20260508232520 | 52 | 32 | 0.0 | 0.0 | 0.00 | 0.11 | 0.11 | 78 | 1011.2 |
| 20260508232017 | 53 | 32 | 0.0 | 0.0 | 0.00 | 0.11 | 0.11 | 79 | 1011.1 |
| 20260508231515 | 53 | 32 | 0.0 | 0.0 | 0.00 | 0.11 | 0.11 | 78 | 1011.1 |
| 20260508231012 | 52 | 22 | 0.0 | 1.0 | 0.00 | 0.11 | 0.11 | 77 | 1011.1 |
| 20260508230508 | 52 | 26 | 0.0 | 0.0 | 0.00 | 0.11 | 0.11 | 77 | 1010.9 |
| 20260508230005 | 52 | 32 | 1.0 | 1.0 | 0.00 | 0.11 | 0.11 | 77 | 1010.8 |
| 20260508225502 | 52 | 28 | 1.0 | 1.0 | 0.00 | 0.11 | 0.11 | 77 | 1010.9 |
| 20260508224959 | 52 | 25 | 2.0 | 2.0 | 0.00 | 0.11 | 0.11 | 77 | 1011.0 |
| 20260508224456 | 52 | 29 | 0.0 | 0.0 | 0.00 | 0.11 | 0.11 | 77 | 1010.9 |